sensor_id;sensor_type;location;lat;lon;timestamp;P1;durP1;ratioP1;P2;durP2;ratioP2
50739;SDS011;36704;52.524;17.580;2024-03-23T00:56:36;29.27;;;15.57;;
50739;SDS011;36704;52.524;17.580;2024-03-23T01:01:57;28.90;;;15.10;;
50739;SDS011;36704;52.524;17.580;2024-03-23T01:07:17;33.72;;;15.38;;
50739;SDS011;36704;52.524;17.580;2024-03-23T01:12:38;31.30;;;16.42;;
50739;SDS011;36704;52.524;17.580;2024-03-23T01:17:57;35.10;;;15.30;;
50739;SDS011;36704;52.524;17.580;2024-03-23T01:23:18;33.47;;;14.30;;
50739;SDS011;36704;52.524;17.580;2024-03-23T01:28:38;33.75;;;15.80;;
50739;SDS011;36704;52.524;17.580;2024-03-23T01:33:58;33.70;;;16.80;;
50739;SDS011;36704;52.524;17.580;2024-03-23T01:39:18;33.58;;;15.40;;
50739;SDS011;36704;52.524;17.580;2024-03-23T01:44:38;30.63;;;15.38;;
50739;SDS011;36704;52.524;17.580;2024-03-23T01:49:58;32.65;;;15.90;;
50739;SDS011;36704;52.524;17.580;2024-03-23T01:55:18;29.77;;;16.75;;
50739;SDS011;36704;52.524;17.580;2024-03-23T02:00:39;25.70;;;13.18;;
50739;SDS011;36704;52.524;17.580;2024-03-23T02:05:59;27.50;;;13.45;;
50739;SDS011;36704;52.524;17.580;2024-03-23T02:11:19;24.48;;;12.57;;
50739;SDS011;36704;52.524;17.580;2024-03-23T02:16:39;27.10;;;13.23;;
50739;SDS011;36704;52.524;17.580;2024-03-23T02:22:00;25.23;;;11.57;;
50739;SDS011;36704;52.524;17.580;2024-03-23T02:27:21;27.85;;;13.30;;
50739;SDS011;36704;52.524;17.580;2024-03-23T02:32:41;25.88;;;12.13;;
50739;SDS011;36704;52.524;17.580;2024-03-23T02:38:01;28.00;;;12.82;;
50739;SDS011;36704;52.524;17.580;2024-03-23T02:43:21;22.92;;;12.15;;
50739;SDS011;36704;52.524;17.580;2024-03-23T02:48:41;23.63;;;11.52;;
50739;SDS011;36704;52.524;17.580;2024-03-23T02:54:01;22.70;;;12.02;;
50739;SDS011;36704;52.524;17.580;2024-03-23T02:59:21;25.10;;;12.63;;
50739;SDS011;36704;52.524;17.580;2024-03-23T03:04:42;25.05;;;12.52;;
50739;SDS011;36704;52.524;17.580;2024-03-23T03:10:02;23.98;;;13.00;;
50739;SDS011;36704;52.524;17.580;2024-03-23T03:15:24;27.80;;;13.73;;
50739;SDS011;36704;52.524;17.580;2024-03-23T03:20:44;28.88;;;15.43;;
50739;SDS011;36704;52.524;17.580;2024-03-23T03:26:05;29.35;;;14.35;;
50739;SDS011;36704;52.524;17.580;2024-03-23T03:31:25;28.05;;;14.88;;
50739;SDS011;36704;52.524;17.580;2024-03-23T03:36:45;29.55;;;14.02;;
50739;SDS011;36704;52.524;17.580;2024-03-23T03:42:05;30.38;;;14.82;;
50739;SDS011;36704;52.524;17.580;2024-03-23T03:47:27;34.50;;;14.88;;
50739;SDS011;36704;52.524;17.580;2024-03-23T03:52:47;19.20;;;4.82;;
50739;SDS011;36704;52.524;17.580;2024-03-23T03:58:07;10.90;;;3.85;;
50739;SDS011;36704;52.524;17.580;2024-03-23T04:03:27;10.43;;;2.65;;
50739;SDS011;36704;52.524;17.580;2024-03-23T04:08:48;15.73;;;3.03;;
50739;SDS011;36704;52.524;17.580;2024-03-23T04:14:09;18.23;;;3.78;;
50739;SDS011;36704;52.524;17.580;2024-03-23T04:19:30;16.65;;;3.63;;
50739;SDS011;36704;52.524;17.580;2024-03-23T04:24:50;14.75;;;6.00;;
50739;SDS011;36704;52.524;17.580;2024-03-23T04:30:10;28.67;;;13.50;;
50739;SDS011;36704;52.524;17.580;2024-03-23T04:35:31;13.70;;;4.33;;
50739;SDS011;36704;52.524;17.580;2024-03-23T04:40:57;19.85;;;3.70;;
50739;SDS011;36704;52.524;17.580;2024-03-23T04:46:18;17.02;;;3.83;;
50739;SDS011;36704;52.524;17.580;2024-03-23T04:51:40;12.60;;;2.83;;
50739;SDS011;36704;52.524;17.580;2024-03-23T04:57:05;15.90;;;4.43;;
50739;SDS011;36704;52.524;17.580;2024-03-23T05:02:25;15.27;;;3.22;;
50739;SDS011;36704;52.524;17.580;2024-03-23T05:07:45;12.77;;;3.55;;
50739;SDS011;36704;52.524;17.580;2024-03-23T05:13:05;11.52;;;5.10;;
50739;SDS011;36704;52.524;17.580;2024-03-23T05:18:26;18.98;;;6.13;;
50739;SDS011;36704;52.524;17.580;2024-03-23T05:23:47;31.38;;;9.90;;
50739;SDS011;36704;52.524;17.580;2024-03-23T05:29:07;15.65;;;3.80;;
50739;SDS011;36704;52.524;17.580;2024-03-23T05:34:30;22.80;;;6.80;;
50739;SDS011;36704;52.524;17.580;2024-03-23T05:39:51;21.88;;;4.30;;
50739;SDS011;36704;52.524;17.580;2024-03-23T05:45:11;22.85;;;4.72;;
50739;SDS011;36704;52.524;17.580;2024-03-23T05:50:32;14.23;;;3.40;;
50739;SDS011;36704;52.524;17.580;2024-03-23T05:55:59;12.02;;;4.35;;
50739;SDS011;36704;52.524;17.580;2024-03-23T06:01:20;15.40;;;4.13;;
50739;SDS011;36704;52.524;17.580;2024-03-23T06:06:40;26.20;;;7.90;;
50739;SDS011;36704;52.524;17.580;2024-03-23T06:12:00;19.40;;;4.70;;
50739;SDS011;36704;52.524;17.580;2024-03-23T06:17:20;20.90;;;5.95;;
50739;SDS011;36704;52.524;17.580;2024-03-23T06:22:41;17.97;;;4.93;;
50739;SDS011;36704;52.524;17.580;2024-03-23T06:28:01;13.75;;;4.65;;
50739;SDS011;36704;52.524;17.580;2024-03-23T06:33:23;15.90;;;4.60;;
50739;SDS011;36704;52.524;17.580;2024-03-23T06:38:44;14.68;;;3.55;;
50739;SDS011;36704;52.524;17.580;2024-03-23T06:44:04;15.13;;;3.92;;
50739;SDS011;36704;52.524;17.580;2024-03-23T06:49:24;20.00;;;6.32;;
50739;SDS011;36704;52.524;17.580;2024-03-23T06:54:44;20.90;;;6.07;;
50739;SDS011;36704;52.524;17.580;2024-03-23T07:00:05;14.32;;;4.65;;
50739;SDS011;36704;52.524;17.580;2024-03-23T07:05:29;17.52;;;3.88;;
50739;SDS011;36704;52.524;17.580;2024-03-23T07:10:49;23.60;;;5.10;;
50739;SDS011;36704;52.524;17.580;2024-03-23T07:16:09;17.73;;;4.13;;
50739;SDS011;36704;52.524;17.580;2024-03-23T07:21:29;17.80;;;4.55;;
50739;SDS011;36704;52.524;17.580;2024-03-23T07:26:49;12.50;;;3.65;;
50739;SDS011;36704;52.524;17.580;2024-03-23T07:32:10;18.90;;;5.85;;
50739;SDS011;36704;52.524;17.580;2024-03-23T07:37:31;16.15;;;5.00;;
50739;SDS011;36704;52.524;17.580;2024-03-23T07:42:51;29.15;;;6.65;;
50739;SDS011;36704;52.524;17.580;2024-03-23T07:48:13;17.73;;;6.37;;
50739;SDS011;36704;52.524;17.580;2024-03-23T07:53:33;25.65;;;6.75;;
50739;SDS011;36704;52.524;17.580;2024-03-23T07:58:53;19.42;;;6.03;;
50739;SDS011;36704;52.524;17.580;2024-03-23T08:04:13;53.35;;;19.77;;
50739;SDS011;36704;52.524;17.580;2024-03-23T08:09:33;27.85;;;7.30;;
50739;SDS011;36704;52.524;17.580;2024-03-23T08:14:53;37.20;;;10.02;;
50739;SDS011;36704;52.524;17.580;2024-03-23T08:20:14;23.15;;;7.57;;
50739;SDS011;36704;52.524;17.580;2024-03-23T08:25:34;24.42;;;7.53;;
50739;SDS011;36704;52.524;17.580;2024-03-23T08:30:55;22.40;;;6.78;;
50739;SDS011;36704;52.524;17.580;2024-03-23T08:36:15;24.63;;;8.68;;
50739;SDS011;36704;52.524;17.580;2024-03-23T08:41:36;28.52;;;8.63;;
50739;SDS011;36704;52.524;17.580;2024-03-23T08:46:56;24.52;;;9.07;;
50739;SDS011;36704;52.524;17.580;2024-03-23T08:52:16;41.47;;;11.25;;
50739;SDS011;36704;52.524;17.580;2024-03-23T08:57:37;21.30;;;7.22;;
50739;SDS011;36704;52.524;17.580;2024-03-23T09:02:57;28.38;;;7.43;;
50739;SDS011;36704;52.524;17.580;2024-03-23T09:08:17;25.20;;;6.88;;
50739;SDS011;36704;52.524;17.580;2024-03-23T09:13:37;25.65;;;6.82;;
50739;SDS011;36704;52.524;17.580;2024-03-23T09:18:57;31.55;;;11.65;;
50739;SDS011;36704;52.524;17.580;2024-03-23T09:24:18;24.33;;;7.93;;
50739;SDS011;36704;52.524;17.580;2024-03-23T09:29:39;36.93;;;10.23;;
50739;SDS011;36704;52.524;17.580;2024-03-23T09:34:59;16.27;;;7.07;;
50739;SDS011;36704;52.524;17.580;2024-03-23T09:40:20;26.73;;;11.15;;
50739;SDS011;36704;52.524;17.580;2024-03-23T09:45:40;23.60;;;9.75;;
50739;SDS011;36704;52.524;17.580;2024-03-23T09:51:00;19.15;;;6.53;;
50739;SDS011;36704;52.524;17.580;2024-03-23T10:01:43;23.08;;;8.57;;
50739;SDS011;36704;52.524;17.580;2024-03-23T10:07:10;28.85;;;8.20;;
50739;SDS011;36704;52.524;17.580;2024-03-23T10:12:32;14.45;;;6.22;;
50739;SDS011;36704;52.524;17.580;2024-03-23T10:17:52;17.42;;;5.78;;
50739;SDS011;36704;52.524;17.580;2024-03-23T10:23:16;15.00;;;4.97;;
50739;SDS011;36704;52.524;17.580;2024-03-23T10:28:36;15.85;;;6.43;;
50739;SDS011;36704;52.524;17.580;2024-03-23T10:33:56;17.73;;;6.60;;
50739;SDS011;36704;52.524;17.580;2024-03-23T10:39:17;24.13;;;7.57;;
50739;SDS011;36704;52.524;17.580;2024-03-23T10:44:38;43.50;;;17.48;;
50739;SDS011;36704;52.524;17.580;2024-03-23T10:49:58;22.08;;;7.00;;
50739;SDS011;36704;52.524;17.580;2024-03-23T10:55:18;49.75;;;19.80;;
50739;SDS011;36704;52.524;17.580;2024-03-23T11:00:40;36.83;;;15.52;;
50739;SDS011;36704;52.524;17.580;2024-03-23T11:06:00;28.95;;;13.60;;
50739;SDS011;36704;52.524;17.580;2024-03-23T11:11:21;29.00;;;14.90;;
50739;SDS011;36704;52.524;17.580;2024-03-23T11:16:43;126.00;;;58.70;;
50739;SDS011;36704;52.524;17.580;2024-03-23T11:22:03;147.52;;;51.47;;
50739;SDS011;36704;52.524;17.580;2024-03-23T11:27:23;70.13;;;29.00;;
50739;SDS011;36704;52.524;17.580;2024-03-23T11:32:45;48.58;;;22.00;;
50739;SDS011;36704;52.524;17.580;2024-03-23T11:43:32;42.92;;;17.17;;
50739;SDS011;36704;52.524;17.580;2024-03-23T11:48:52;30.55;;;17.52;;
50739;SDS011;36704;52.524;17.580;2024-03-23T11:54:12;20.13;;;10.13;;
50739;SDS011;36704;52.524;17.580;2024-03-23T11:59:36;30.55;;;16.65;;
50739;SDS011;36704;52.524;17.580;2024-03-23T12:05:05;25.83;;;12.93;;
50739;SDS011;36704;52.524;17.580;2024-03-23T12:10:33;29.67;;;12.40;;
50739;SDS011;36704;52.524;17.580;2024-03-23T12:15:53;108.90;;;44.58;;
50739;SDS011;36704;52.524;17.580;2024-03-23T12:21:13;50.92;;;13.52;;
50739;SDS011;36704;52.524;17.580;2024-03-23T12:26:33;131.57;;;35.85;;
50739;SDS011;36704;52.524;17.580;2024-03-23T12:31:54;29.05;;;10.70;;
50739;SDS011;36704;52.524;17.580;2024-03-23T12:37:15;30.13;;;11.80;;
50739;SDS011;36704;52.524;17.580;2024-03-23T12:42:37;11.48;;;6.43;;
50739;SDS011;36704;52.524;17.580;2024-03-23T12:47:57;29.13;;;17.30;;
50739;SDS011;36704;52.524;17.580;2024-03-23T12:53:17;31.63;;;14.18;;
50739;SDS011;36704;52.524;17.580;2024-03-23T12:58:37;39.08;;;19.52;;
50739;SDS011;36704;52.524;17.580;2024-03-23T13:03:57;37.35;;;14.95;;
50739;SDS011;36704;52.524;17.580;2024-03-23T13:09:19;31.30;;;12.75;;
50739;SDS011;36704;52.524;17.580;2024-03-23T13:14:39;12.45;;;6.13;;
50739;SDS011;36704;52.524;17.580;2024-03-23T13:19:59;18.75;;;8.80;;
50739;SDS011;36704;52.524;17.580;2024-03-23T13:25:19;13.07;;;5.63;;
50739;SDS011;36704;52.524;17.580;2024-03-23T13:30:40;10.75;;;6.07;;
50739;SDS011;36704;52.524;17.580;2024-03-23T13:36:00;12.23;;;6.65;;
50739;SDS011;36704;52.524;17.580;2024-03-23T13:41:20;18.75;;;9.10;;
50739;SDS011;36704;52.524;17.580;2024-03-23T13:46:40;15.13;;;8.23;;
50739;SDS011;36704;52.524;17.580;2024-03-23T14:07:09;7.38;;;4.20;;
50739;SDS011;36704;52.524;17.580;2024-03-23T14:12:30;5.05;;;2.95;;
50739;SDS011;36704;52.524;17.580;2024-03-23T14:17:50;4.35;;;2.78;;
50739;SDS011;36704;52.524;17.580;2024-03-23T14:23:12;3.35;;;1.55;;
50739;SDS011;36704;52.524;17.580;2024-03-23T14:28:32;4.38;;;1.58;;
50739;SDS011;36704;52.524;17.580;2024-03-23T14:33:52;1.75;;;1.30;;
50739;SDS011;36704;52.524;17.580;2024-03-23T14:39:13;4.43;;;2.00;;
50739;SDS011;36704;52.524;17.580;2024-03-23T14:44:32;5.18;;;2.10;;
50739;SDS011;36704;52.524;17.580;2024-03-23T14:49:53;8.32;;;3.28;;
50739;SDS011;36704;52.524;17.580;2024-03-23T14:55:13;6.63;;;3.40;;
50739;SDS011;36704;52.524;17.580;2024-03-23T15:00:34;4.15;;;2.03;;
50739;SDS011;36704;52.524;17.580;2024-03-23T15:05:57;4.25;;;2.35;;
50739;SDS011;36704;52.524;17.580;2024-03-23T15:11:20;5.93;;;3.60;;
50739;SDS011;36704;52.524;17.580;2024-03-23T15:16:40;2.83;;;1.58;;
50739;SDS011;36704;52.524;17.580;2024-03-23T15:22:02;4.78;;;2.80;;
50739;SDS011;36704;52.524;17.580;2024-03-23T15:27:22;6.38;;;3.75;;
50739;SDS011;36704;52.524;17.580;2024-03-23T15:32:42;3.67;;;1.85;;
50739;SDS011;36704;52.524;17.580;2024-03-23T15:38:03;5.45;;;1.80;;
50739;SDS011;36704;52.524;17.580;2024-03-23T15:43:23;3.33;;;1.42;;
50739;SDS011;36704;52.524;17.580;2024-03-23T15:48:43;2.75;;;1.77;;
50739;SDS011;36704;52.524;17.580;2024-03-23T15:54:06;2.08;;;1.25;;
50739;SDS011;36704;52.524;17.580;2024-03-23T15:59:26;4.38;;;1.90;;
50739;SDS011;36704;52.524;17.580;2024-03-23T16:04:46;5.18;;;2.33;;
50739;SDS011;36704;52.524;17.580;2024-03-23T16:10:06;5.03;;;2.20;;
50739;SDS011;36704;52.524;17.580;2024-03-23T16:15:29;5.40;;;1.77;;
50739;SDS011;36704;52.524;17.580;2024-03-23T16:26:19;4.57;;;2.00;;
50739;SDS011;36704;52.524;17.580;2024-03-23T16:31:39;5.45;;;2.58;;
50739;SDS011;36704;52.524;17.580;2024-03-23T16:36:59;3.10;;;1.90;;
50739;SDS011;36704;52.524;17.580;2024-03-23T16:42:19;6.07;;;2.15;;
50739;SDS011;36704;52.524;17.580;2024-03-23T16:47:39;5.10;;;2.30;;
50739;SDS011;36704;52.524;17.580;2024-03-23T16:53:02;6.17;;;2.90;;
50739;SDS011;36704;52.524;17.580;2024-03-23T16:58:22;8.82;;;3.35;;
50739;SDS011;36704;52.524;17.580;2024-03-23T17:03:45;2.25;;;1.60;;
50739;SDS011;36704;52.524;17.580;2024-03-23T17:09:08;2.53;;;1.40;;
50739;SDS011;36704;52.524;17.580;2024-03-23T17:14:31;4.28;;;2.35;;
50739;SDS011;36704;52.524;17.580;2024-03-23T17:19:58;7.18;;;2.05;;
50739;SDS011;36704;52.524;17.580;2024-03-23T17:31:55;4.65;;;1.95;;
50739;SDS011;36704;52.524;17.580;2024-03-23T17:37:15;7.90;;;2.92;;
50739;SDS011;36704;52.524;17.580;2024-03-23T17:42:35;3.92;;;1.85;;
50739;SDS011;36704;52.524;17.580;2024-03-23T17:47:56;9.63;;;2.47;;
50739;SDS011;36704;52.524;17.580;2024-03-23T17:53:16;4.50;;;2.25;;
50739;SDS011;36704;52.524;17.580;2024-03-23T17:58:37;17.73;;;7.18;;
50739;SDS011;36704;52.524;17.580;2024-03-23T18:03:58;4.22;;;2.35;;
50739;SDS011;36704;52.524;17.580;2024-03-23T18:09:19;6.00;;;3.15;;
50739;SDS011;36704;52.524;17.580;2024-03-23T18:14:40;2.60;;;2.05;;
50739;SDS011;36704;52.524;17.580;2024-03-23T18:20:00;6.63;;;2.75;;
50739;SDS011;36704;52.524;17.580;2024-03-23T18:25:20;7.30;;;4.05;;
50739;SDS011;36704;52.524;17.580;2024-03-23T18:30:40;6.80;;;3.42;;
50739;SDS011;36704;52.524;17.580;2024-03-23T18:36:00;9.65;;;4.95;;
50739;SDS011;36704;52.524;17.580;2024-03-23T18:41:21;14.40;;;7.15;;
50739;SDS011;36704;52.524;17.580;2024-03-23T18:46:42;19.80;;;6.60;;
50739;SDS011;36704;52.524;17.580;2024-03-23T18:52:02;9.85;;;4.50;;
50739;SDS011;36704;52.524;17.580;2024-03-23T18:57:22;15.23;;;4.50;;
50739;SDS011;36704;52.524;17.580;2024-03-23T19:02:43;14.43;;;4.68;;
50739;SDS011;36704;52.524;17.580;2024-03-23T19:08:04;13.25;;;5.05;;
50739;SDS011;36704;52.524;17.580;2024-03-23T19:13:26;30.77;;;9.88;;
50739;SDS011;36704;52.524;17.580;2024-03-23T19:18:47;10.87;;;3.90;;
50739;SDS011;36704;52.524;17.580;2024-03-23T19:24:09;16.27;;;8.48;;
50739;SDS011;36704;52.524;17.580;2024-03-23T19:29:29;11.07;;;4.30;;
50739;SDS011;36704;52.524;17.580;2024-03-23T19:34:49;25.63;;;8.77;;
50739;SDS011;36704;52.524;17.580;2024-03-23T19:40:10;12.40;;;6.07;;
50739;SDS011;36704;52.524;17.580;2024-03-23T19:45:35;12.23;;;5.72;;
50739;SDS011;36704;52.524;17.580;2024-03-23T19:50:55;12.00;;;6.97;;
50739;SDS011;36704;52.524;17.580;2024-03-23T19:56:20;20.75;;;7.60;;
50739;SDS011;36704;52.524;17.580;2024-03-23T20:01:40;12.32;;;5.47;;
50739;SDS011;36704;52.524;17.580;2024-03-23T20:07:01;15.13;;;6.40;;
50739;SDS011;36704;52.524;17.580;2024-03-23T20:12:21;11.20;;;5.13;;
50739;SDS011;36704;52.524;17.580;2024-03-23T20:17:42;12.73;;;7.20;;
50739;SDS011;36704;52.524;17.580;2024-03-23T20:23:04;12.77;;;6.43;;
50739;SDS011;36704;52.524;17.580;2024-03-23T20:28:24;12.43;;;6.68;;
50739;SDS011;36704;52.524;17.580;2024-03-23T20:33:44;18.73;;;13.93;;
50739;SDS011;36704;52.524;17.580;2024-03-23T20:39:07;14.18;;;5.80;;
50739;SDS011;36704;52.524;17.580;2024-03-23T20:44:29;11.10;;;6.17;;
50739;SDS011;36704;52.524;17.580;2024-03-23T20:49:49;16.55;;;12.00;;
50739;SDS011;36704;52.524;17.580;2024-03-23T20:55:11;9.93;;;5.35;;
50739;SDS011;36704;52.524;17.580;2024-03-23T21:00:32;10.68;;;5.43;;
50739;SDS011;36704;52.524;17.580;2024-03-23T21:05:52;12.30;;;5.03;;
50739;SDS011;36704;52.524;17.580;2024-03-23T21:11:13;14.18;;;5.53;;
50739;SDS011;36704;52.524;17.580;2024-03-23T21:16:33;9.90;;;4.97;;
50739;SDS011;36704;52.524;17.580;2024-03-23T21:21:53;11.05;;;5.95;;
50739;SDS011;36704;52.524;17.580;2024-03-23T21:27:14;10.23;;;4.65;;
50739;SDS011;36704;52.524;17.580;2024-03-23T21:32:34;15.43;;;7.28;;
50739;SDS011;36704;52.524;17.580;2024-03-23T21:37:54;13.52;;;6.97;;
50739;SDS011;36704;52.524;17.580;2024-03-23T21:43:14;13.65;;;6.60;;
50739;SDS011;36704;52.524;17.580;2024-03-23T21:48:34;11.52;;;6.28;;
50739;SDS011;36704;52.524;17.580;2024-03-23T21:53:55;13.20;;;5.75;;
50739;SDS011;36704;52.524;17.580;2024-03-23T21:59:17;11.57;;;5.43;;
50739;SDS011;36704;52.524;17.580;2024-03-23T22:04:37;12.85;;;5.25;;
50739;SDS011;36704;52.524;17.580;2024-03-23T22:09:57;7.82;;;4.28;;
50739;SDS011;36704;52.524;17.580;2024-03-23T22:15:17;11.35;;;4.82;;
50739;SDS011;36704;52.524;17.580;2024-03-23T22:20:39;11.70;;;6.07;;
50739;SDS011;36704;52.524;17.580;2024-03-23T22:26:00;13.43;;;5.70;;
50739;SDS011;36704;52.524;17.580;2024-03-23T22:31:20;9.70;;;4.55;;
50739;SDS011;36704;52.524;17.580;2024-03-23T22:36:40;14.43;;;5.65;;
50739;SDS011;36704;52.524;17.580;2024-03-23T22:42:01;13.30;;;5.28;;
50739;SDS011;36704;52.524;17.580;2024-03-23T22:47:21;14.38;;;5.53;;
50739;SDS011;36704;52.524;17.580;2024-03-23T22:52:41;11.73;;;4.70;;
50739;SDS011;36704;52.524;17.580;2024-03-23T22:58:01;12.13;;;4.85;;
50739;SDS011;36704;52.524;17.580;2024-03-23T23:03:22;15.98;;;4.45;;
50739;SDS011;36704;52.524;17.580;2024-03-23T23:08:42;9.63;;;4.72;;
50739;SDS011;36704;52.524;17.580;2024-03-23T23:14:02;8.10;;;3.95;;
50739;SDS011;36704;52.524;17.580;2024-03-23T23:19:22;15.30;;;4.82;;
50739;SDS011;36704;52.524;17.580;2024-03-23T23:24:42;14.05;;;4.50;;
50739;SDS011;36704;52.524;17.580;2024-03-23T23:30:03;9.63;;;5.07;;
50739;SDS011;36704;52.524;17.580;2024-03-23T23:35:23;8.80;;;4.60;;
50739;SDS011;36704;52.524;17.580;2024-03-23T23:40:43;13.18;;;5.32;;
50739;SDS011;36704;52.524;17.580;2024-03-23T23:46:04;17.33;;;10.15;;
50739;SDS011;36704;52.524;17.580;2024-03-23T23:51:24;8.13;;;4.68;;
50739;SDS011;36704;52.524;17.580;2024-03-23T23:56:45;11.95;;;5.43;;
